createdAt,value
2022-08-25T00:00:22.998Z,88.50
2022-08-25T00:03:06.772Z,88.47
2022-08-25T00:05:35.063Z,88.76
2022-08-25T00:08:06.662Z,88.71
2022-08-25T00:10:37.651Z,88.84
2022-08-25T00:13:05.876Z,88.77
2022-08-25T00:15:33.970Z,88.83
2022-08-25T00:18:02.641Z,89.06
2022-08-25T00:20:32.134Z,88.76
2022-08-25T00:23:00.007Z,88.96
2022-08-25T00:25:28.535Z,89.12
2022-08-25T00:27:57.487Z,89.32
2022-08-25T00:30:25.643Z,89.38
2022-08-25T00:32:56.885Z,89.38
2022-08-25T00:35:26.945Z,89.49
2022-08-25T00:37:55.192Z,89.69
2022-08-25T00:40:26.359Z,89.82
2022-08-25T00:42:54.878Z,89.95
2022-08-25T00:45:23.675Z,90.21
2022-08-25T00:47:51.626Z,90.27
2022-08-25T00:50:20.005Z,90.23
2022-08-25T00:52:51.590Z,90.05
2022-08-25T00:55:25.625Z,90.04
2022-08-25T00:58:03.024Z,90.11
2022-08-25T01:00:43.634Z,90.18
2022-08-25T01:03:13.052Z,90.48
2022-08-25T01:05:43.565Z,90.34
2022-08-25T01:08:29.109Z,90.42
2022-08-25T01:10:59.769Z,90.50
2022-08-25T01:13:41.755Z,90.19
2022-08-25T01:16:09.647Z,90.11
2022-08-25T01:18:53.530Z,90.07
2022-08-25T01:21:23.755Z,90.26
2022-08-25T01:23:53.244Z,90.20
2022-08-25T01:26:30.625Z,90.10
2022-08-25T01:29:22.550Z,90.40
2022-08-25T01:31:55.164Z,90.69
2022-08-25T01:34:25.804Z,90.89
2022-08-25T01:36:56.044Z,91.02
2022-08-25T01:39:26.285Z,91.40
2022-08-25T01:42:06.935Z,91.89
2022-08-25T01:44:38.184Z,92.18
2022-08-25T01:47:07.723Z,92.60
2022-08-25T01:49:37.252Z,92.61
2022-08-25T01:52:21.301Z,92.96
2022-08-25T01:54:50.129Z,93.17
2022-08-25T01:57:18.765Z,93.26
2022-08-25T01:59:47.807Z,93.51
2022-08-25T02:02:18.323Z,93.72
2022-08-25T02:04:48.044Z,93.94
2022-08-25T02:07:16.208Z,94.17
2022-08-25T02:09:44.771Z,94.47
2022-08-25T02:12:13.480Z,94.59
2022-08-25T02:14:41.751Z,94.60
2022-08-25T02:17:10.687Z,94.66
2022-08-25T02:19:38.711Z,94.87
2022-08-25T02:22:07.154Z,94.99
2022-08-25T02:24:35.219Z,95.27
2022-08-25T02:27:04.404Z,95.52
2022-08-25T02:29:34.092Z,95.58
2022-08-25T02:32:03.310Z,95.45
2022-08-25T02:34:31.205Z,95.78
2022-08-25T02:36:59.156Z,96.04
2022-08-25T02:39:27.019Z,95.68
2022-08-25T02:41:54.833Z,95.78
2022-08-25T02:44:22.831Z,95.74
2022-08-25T02:46:50.730Z,95.76
2022-08-25T02:49:18.960Z,95.90
2022-08-25T02:51:47.118Z,95.78
2022-08-25T02:54:15.096Z,95.79
2022-08-25T02:56:43.291Z,96.01
2022-08-25T02:59:12.410Z,96.20
2022-08-25T03:01:40.314Z,96.21
2022-08-25T03:04:08.174Z,96.16
2022-08-25T03:06:36.014Z,96.08
2022-08-25T03:09:04.585Z,96.20
2022-08-25T03:11:33.430Z,96.02
2022-08-25T03:14:01.273Z,95.96
2022-08-25T03:16:29.872Z,95.85
2022-08-25T03:18:58.610Z,95.86
2022-08-25T03:21:30.018Z,95.91
2022-08-25T03:23:59.385Z,96.23
2022-08-25T03:26:46.298Z,96.28
2022-08-25T03:29:14.412Z,96.63
2022-08-25T03:31:44.975Z,96.64
2022-08-25T03:34:19.690Z,96.74
2022-08-25T03:36:50.493Z,96.97
2022-08-25T03:39:20.397Z,96.92
2022-08-25T03:41:48.384Z,96.96
2022-08-25T03:44:17.605Z,96.89
2022-08-25T03:46:52.299Z,97.20
2022-08-25T03:49:23.010Z,97.02
2022-08-25T03:51:53.766Z,97.18
2022-08-25T03:54:24.934Z,97.12
2022-08-25T03:56:53.358Z,96.99
2022-08-25T03:59:21.415Z,97.17
2022-08-25T04:01:54.460Z,97.28
2022-08-25T04:04:23.666Z,97.29
2022-08-25T04:06:53.345Z,97.03
2022-08-25T04:09:21.974Z,97.10
2022-08-25T04:11:53.050Z,96.91
2022-08-25T04:14:24.033Z,96.99
2022-08-25T04:16:53.450Z,96.79
2022-08-25T04:19:22.376Z,96.91
2022-08-25T04:21:50.456Z,96.89
2022-08-25T04:24:19.565Z,96.89
2022-08-25T04:26:51.095Z,96.79
2022-08-25T04:29:23.547Z,96.79
2022-08-25T04:31:53.960Z,96.72
2022-08-25T04:34:30.500Z,96.63
2022-08-25T04:37:03.281Z,96.57
2022-08-25T04:39:31.771Z,96.25
2022-08-25T04:42:01.149Z,96.03
2022-08-25T04:44:32.078Z,95.78
2022-08-25T04:47:00.636Z,95.58
2022-08-25T04:49:29.154Z,95.52
2022-08-25T04:51:57.856Z,95.23
2022-08-25T04:54:28.342Z,94.78
2022-08-25T04:56:58.281Z,94.39
2022-08-25T04:59:30.264Z,94.27
2022-08-25T05:02:02.792Z,93.80
2022-08-25T05:04:32.911Z,93.46
2022-08-25T05:07:01.353Z,92.90
2022-08-25T05:09:32.335Z,92.29
2022-08-25T05:12:04.670Z,91.64
2022-08-25T05:14:33.005Z,91.17
2022-08-25T05:17:02.183Z,90.54
2022-08-25T05:19:31.106Z,89.61
2022-08-25T05:21:59.525Z,88.14
2022-08-25T05:24:28.565Z,85.83
2022-08-25T05:26:56.983Z,83.43
2022-08-25T05:29:24.995Z,81.60
2022-08-25T05:31:53.619Z,79.12
2022-08-25T05:34:22.445Z,77.12
2022-08-25T05:36:51.533Z,76.19
2022-08-25T05:39:19.475Z,74.48
2022-08-25T05:41:47.307Z,73.20
2022-08-25T05:44:19.141Z,72.40
2022-08-25T05:46:48.980Z,70.97
2022-08-25T05:49:17.394Z,70.02
2022-08-25T05:51:45.272Z,67.58
2022-08-25T05:54:13.098Z,66.05
2022-08-25T05:56:41.593Z,64.34
2022-08-25T05:59:09.909Z,62.99
2022-08-25T06:01:57.272Z,62.57
2022-08-25T06:04:25.666Z,60.92
2022-08-25T06:06:55.156Z,60.23
2022-08-25T06:09:23.430Z,59.68
2022-08-25T06:11:54.708Z,57.84
2022-08-25T06:14:24.329Z,56.29
2022-08-25T06:16:52.706Z,55.43
2022-08-25T06:19:23.538Z,55.11
2022-08-25T06:21:55.688Z,55.67
2022-08-25T06:24:26.357Z,55.73
2022-08-25T06:26:56.338Z,56.13
2022-08-25T06:29:24.482Z,56.68
2022-08-25T06:31:53.120Z,57.52
2022-08-25T06:34:24.007Z,57.61
2022-08-25T06:36:53.181Z,56.16
2022-08-25T06:39:21.557Z,56.20
2022-08-25T06:41:55.022Z,56.95
2022-08-25T06:44:24.062Z,56.28
2022-08-25T06:46:52.010Z,57.34
2022-08-25T06:49:20.516Z,57.31
2022-08-25T06:51:49.776Z,56.39
2022-08-25T06:54:17.857Z,55.41
2022-08-25T06:56:45.759Z,54.77
2022-08-25T06:59:14.125Z,55.67
2022-08-25T07:01:42.233Z,55.02
2022-08-25T07:04:12.856Z,53.35
2022-08-25T07:06:42.251Z,54.12
2022-08-25T07:09:12.397Z,51.62
2022-08-25T07:11:41.944Z,51.73
2022-08-25T07:14:12.115Z,50.66
2022-08-25T07:16:43.169Z,51.49
2022-08-25T07:19:21.218Z,51.86
2022-08-25T07:21:52.103Z,50.17
2022-08-25T07:24:20.122Z,50.33
2022-08-25T07:26:48.285Z,49.11
2022-08-25T07:29:20.157Z,49.67
2022-08-25T07:32:02.716Z,47.99
2022-08-25T07:34:51.867Z,48.66
2022-08-25T07:40:22.534Z,45.38
2022-08-25T07:42:53.759Z,45.66
2022-08-25T07:45:30.411Z,44.43
2022-08-25T07:48:07.438Z,45.20
2022-08-25T07:50:39.037Z,45.18
2022-08-25T07:53:07.240Z,44.60
2022-08-25T07:55:36.804Z,44.23
2022-08-25T07:58:08.448Z,44.52
2022-08-25T08:00:39.865Z,44.20
2022-08-25T08:03:19.918Z,42.90
2022-08-25T08:05:59.963Z,42.79
2022-08-25T08:08:29.476Z,41.67
2022-08-25T08:11:05.429Z,41.44
2022-08-25T08:13:38.004Z,38.67
2022-08-25T08:16:13.778Z,38.45
2022-08-25T08:18:43.789Z,40.59
2022-08-25T08:21:23.466Z,41.52
2022-08-25T08:23:58.138Z,41.94
2022-08-25T08:26:48.088Z,42.37
2022-08-25T08:29:16.895Z,41.91
2022-08-25T08:31:48.662Z,40.08
2022-08-25T08:34:17.360Z,40.90
2022-08-25T08:36:45.483Z,40.34
2022-08-25T08:39:13.498Z,38.23
2022-08-25T08:42:11.423Z,38.75
2022-08-25T08:44:58.028Z,38.52
2022-08-25T08:48:10.361Z,39.09
2022-08-25T08:50:46.577Z,37.77
2022-08-25T08:53:15.073Z,37.52
2022-08-25T08:55:51.842Z,35.24
2022-08-25T08:58:45.816Z,34.76
2022-08-25T09:01:29.606Z,34.03
2022-08-25T09:04:08.716Z,33.95
2022-08-25T09:06:48.340Z,32.58
2022-08-25T09:09:26.796Z,33.10
2022-08-25T09:12:10.205Z,34.39
2022-08-25T09:14:57.682Z,34.62
2022-08-25T09:17:54.968Z,34.03
2022-08-25T09:20:39.016Z,32.06
2022-08-25T09:23:48.277Z,31.50
2022-08-25T09:26:39.296Z,31.33
2022-08-25T09:29:16.504Z,32.09
2022-08-25T09:31:45.234Z,31.96
2022-08-25T09:34:22.220Z,30.18
2022-08-25T09:36:53.507Z,28.66
2022-08-25T09:39:21.571Z,27.46
2022-08-25T09:41:52.781Z,27.85
2022-08-25T09:44:32.084Z,28.36
2022-08-25T09:47:08.440Z,27.05
2022-08-25T09:50:04.571Z,26.15
2022-08-25T09:52:42.609Z,25.49
2022-08-25T09:55:16.215Z,26.25
2022-08-25T09:57:44.212Z,25.32
2022-08-25T10:00:33.903Z,25.16
2022-08-25T10:03:24.944Z,24.69
2022-08-25T10:05:58.066Z,24.35
2022-08-25T10:08:32.756Z,24.82
2022-08-25T10:11:06.536Z,24.49
2022-08-25T10:13:43.027Z,23.28
2022-08-25T10:16:32.073Z,23.72
2022-08-25T10:19:10.237Z,23.70
2022-08-25T10:21:41.668Z,22.61
2022-08-25T10:24:12.618Z,22.30
2022-08-25T10:27:03.517Z,23.75
2022-08-25T10:30:03.488Z,22.04
2022-08-25T10:32:40.794Z,21.58
2022-08-25T10:35:23.755Z,20.96
2022-08-25T10:38:27.206Z,21.02
2022-08-25T10:41:23.001Z,21.45
2022-08-25T10:44:44.425Z,21.82
2022-08-25T10:47:29.700Z,22.57
2022-08-25T10:50:13.769Z,22.05
2022-08-25T10:52:59.982Z,21.07
2022-08-25T10:55:52.937Z,21.42
2022-08-25T10:59:07.364Z,21.67
2022-08-25T11:02:13.214Z,21.37
2022-08-25T11:04:59.485Z,22.06
2022-08-25T11:07:36.185Z,21.77
2022-08-25T11:10:12.555Z,21.92
2022-08-25T11:12:51.277Z,21.69
2022-08-25T11:15:29.113Z,21.71
2022-08-25T11:18:14.477Z,21.03
2022-08-25T11:20:56.392Z,21.34
2022-08-25T11:23:59.439Z,22.23
2022-08-25T11:26:36.885Z,21.84
2022-08-25T11:29:13.611Z,21.86
2022-08-25T11:31:52.187Z,22.08
2022-08-25T11:34:22.729Z,21.78
2022-08-25T11:37:00.084Z,22.05
2022-08-25T11:39:58.894Z,22.06
2022-08-25T11:42:35.918Z,22.19
2022-08-25T11:45:41.423Z,22.03
2022-08-25T11:48:22.947Z,20.83
2022-08-25T11:51:03.276Z,21.19
2022-08-25T11:53:42.324Z,21.55
2022-08-25T11:56:31.914Z,21.29
2022-08-25T11:59:00.882Z,21.07
2022-08-25T12:01:40.931Z,20.98
2022-08-25T12:04:34.123Z,20.75
2022-08-25T12:07:11.208Z,19.63
2022-08-25T12:09:51.485Z,20.57
2022-08-25T12:12:38.529Z,20.05
2022-08-25T12:15:22.851Z,19.51
2022-08-25T12:18:13.690Z,20.52
2022-08-25T12:20:56.710Z,21.26
2022-08-25T12:24:03.003Z,20.94
2022-08-25T12:26:46.143Z,21.33
2022-08-25T12:29:30.930Z,20.83
2022-08-25T12:32:23.065Z,20.41
2022-08-25T12:34:54.123Z,21.15
2022-08-25T12:37:25.329Z,20.28
2022-08-25T12:40:05.821Z,20.83
2022-08-25T12:42:43.383Z,21.57
2022-08-25T12:45:31.569Z,21.96
2022-08-25T12:48:29.260Z,22.00
2022-08-25T12:51:05.390Z,21.22
2022-08-25T12:53:43.327Z,20.87
2022-08-25T12:56:23.485Z,19.57
2022-08-25T12:59:12.691Z,19.55
2022-08-25T13:02:10.170Z,19.58
2022-08-25T13:04:38.676Z,19.58
2022-08-25T13:07:41.770Z,20.57
2022-08-25T13:10:21.655Z,20.73
2022-08-25T13:13:07.187Z,21.19
2022-08-25T13:15:35.490Z,21.00
2022-08-25T13:18:27.343Z,21.33
2022-08-25T13:21:13.912Z,20.97
2022-08-25T13:24:05.897Z,21.38
2022-08-25T13:26:47.187Z,21.40
2022-08-25T13:29:23.426Z,20.97
2022-08-25T13:32:02.009Z,21.31
2022-08-25T13:34:35.026Z,21.11
2022-08-25T13:37:32.714Z,21.42
2022-08-25T13:40:24.504Z,21.53
2022-08-25T13:43:02.670Z,20.85
2022-08-25T13:45:41.420Z,21.38
2022-08-25T13:48:20.741Z,21.35
2022-08-25T13:50:51.869Z,21.02
2022-08-25T13:53:26.599Z,21.00
2022-08-25T13:56:01.816Z,21.58
2022-08-25T13:58:44.891Z,21.23
2022-08-25T14:01:47.223Z,20.76
2022-08-25T14:04:40.021Z,20.09
2022-08-25T14:07:21.735Z,20.37
2022-08-25T14:09:59.098Z,20.56
2022-08-25T14:12:40.934Z,21.64
2022-08-25T14:15:17.872Z,21.26
2022-08-25T14:18:02.856Z,20.95
2022-08-25T14:20:33.561Z,20.85
2022-08-25T14:23:18.947Z,20.30
2022-08-25T14:25:52.210Z,20.53
2022-08-25T14:28:29.520Z,20.35
2022-08-25T14:31:14.406Z,20.45
2022-08-25T14:33:51.985Z,20.30
2022-08-25T14:36:20.990Z,19.26
2022-08-25T14:38:54.846Z,19.21
2022-08-25T14:41:25.595Z,18.61
2022-08-25T14:43:53.925Z,17.86
2022-08-25T14:46:25.682Z,18.07
2022-08-25T14:48:58.519Z,18.12
2022-08-25T14:51:32.074Z,18.10
2022-08-25T14:54:04.335Z,17.43
2022-08-25T14:56:33.554Z,17.40
2022-08-25T14:59:01.877Z,17.44
2022-08-25T15:01:30.182Z,17.47
2022-08-25T15:04:11.721Z,17.39
2022-08-25T15:06:44.565Z,17.53
2022-08-25T15:09:17.157Z,17.64
2022-08-25T15:11:50.775Z,18.04
2022-08-25T15:14:28.929Z,17.97
2022-08-25T15:17:02.919Z,17.72
2022-08-25T15:19:31.405Z,18.00
2022-08-25T15:21:59.509Z,17.77
2022-08-25T15:24:28.913Z,17.82
2022-08-25T15:27:00.368Z,18.00
2022-08-25T15:29:32.611Z,18.09
2022-08-25T15:32:02.775Z,17.85
2022-08-25T15:34:50.316Z,17.59
2022-08-25T15:37:18.391Z,18.22
2022-08-25T15:39:47.527Z,18.10
2022-08-25T15:42:17.038Z,18.60
2022-08-25T15:44:53.541Z,19.07
2022-08-25T15:47:24.531Z,18.88
2022-08-25T15:50:06.875Z,18.04
2022-08-25T15:52:45.910Z,18.11
2022-08-25T15:55:16.631Z,18.30
2022-08-25T15:57:44.901Z,18.37
2022-08-25T16:00:16.793Z,19.28
2022-08-25T16:02:46.270Z,19.81
2022-08-25T16:05:16.205Z,20.07
2022-08-25T16:07:51.650Z,20.58
2022-08-25T16:10:20.251Z,20.44
2022-08-25T16:12:48.107Z,20.19
2022-08-25T16:15:16.231Z,19.78
2022-08-25T16:17:47.010Z,19.77
2022-08-25T16:20:21.194Z,20.04
2022-08-25T16:22:51.521Z,20.35
2022-08-25T16:25:20.550Z,20.46
2022-08-25T16:27:49.470Z,20.71
2022-08-25T16:30:18.344Z,20.80
2022-08-25T16:32:47.257Z,20.88
2022-08-25T16:35:16.571Z,20.85
2022-08-25T16:37:44.610Z,21.50
2022-08-25T16:40:14.623Z,22.19
2022-08-25T16:42:43.001Z,23.42
2022-08-25T16:45:12.086Z,25.83
2022-08-25T16:47:42.671Z,27.13
2022-08-25T16:50:11.501Z,28.25
2022-08-25T16:52:59.435Z,29.07
2022-08-25T16:55:39.005Z,30.12
2022-08-25T16:58:12.529Z,30.70
2022-08-25T17:00:44.641Z,31.25
2022-08-25T17:03:13.419Z,31.92
2022-08-25T17:05:43.877Z,32.79
2022-08-25T17:08:30.765Z,33.41
2022-08-25T17:11:08.149Z,34.79
2022-08-25T17:13:38.858Z,36.22
2022-08-25T17:16:14.581Z,37.47
2022-08-25T17:18:43.658Z,38.56
2022-08-25T17:21:23.955Z,39.75
2022-08-25T17:23:58.125Z,40.88
2022-08-25T17:26:29.123Z,41.55
2022-08-25T17:29:01.244Z,41.32
2022-08-25T17:31:30.935Z,41.35
2022-08-25T17:33:59.900Z,42.18
2022-08-25T17:36:28.269Z,42.47
2022-08-25T17:38:57.032Z,43.23
2022-08-25T17:41:26.345Z,43.95
2022-08-25T17:43:54.449Z,43.73
2022-08-25T17:46:22.584Z,44.05
2022-08-25T17:48:50.677Z,44.15
2022-08-25T17:51:18.993Z,44.54
2022-08-25T17:53:49.812Z,45.08
2022-08-25T17:56:21.575Z,45.49
2022-08-25T17:58:52.440Z,46.01
2022-08-25T18:01:24.884Z,45.95
2022-08-25T18:03:55.074Z,45.51
2022-08-25T18:06:25.644Z,45.95
2022-08-25T18:08:57.537Z,46.01
2022-08-25T18:11:30.160Z,46.34
2022-08-25T18:13:58.917Z,47.86
2022-08-25T18:16:27.920Z,48.31
2022-08-25T18:18:57.366Z,48.45
2022-08-25T18:21:30.224Z,47.82
2022-08-25T18:23:59.070Z,46.55
2022-08-25T18:26:27.975Z,44.57
2022-08-25T18:28:56.050Z,44.38
2022-08-25T18:31:24.064Z,44.31
2022-08-25T18:33:52.438Z,44.38
2022-08-25T18:36:21.275Z,45.81
2022-08-25T18:39:09.268Z,48.35
2022-08-25T18:41:41.037Z,49.81
2022-08-25T18:44:11.022Z,50.67
2022-08-25T18:46:40.511Z,50.14
2022-08-25T18:49:09.190Z,50.30
2022-08-25T18:51:38.014Z,48.55
2022-08-25T18:54:08.364Z,48.28
2022-08-25T18:56:53.920Z,48.52
2022-08-25T18:59:23.732Z,49.92
2022-08-25T19:01:54.246Z,50.56
2022-08-25T19:04:31.358Z,51.18
2022-08-25T19:07:04.795Z,53.57
2022-08-25T19:09:36.784Z,53.99
2022-08-25T19:12:05.860Z,54.35
2022-08-25T19:14:33.936Z,54.70
2022-08-25T19:17:02.503Z,54.71
2022-08-25T19:19:31.702Z,55.09
2022-08-25T19:22:00.189Z,55.53
2022-08-25T19:24:29.275Z,55.57
2022-08-25T19:26:58.374Z,55.86
2022-08-25T19:29:26.859Z,55.83
2022-08-25T19:32:01.164Z,55.78
2022-08-25T19:34:35.385Z,54.99
2022-08-25T19:37:07.456Z,54.19
2022-08-25T19:39:40.990Z,53.72
2022-08-25T19:42:35.231Z,53.53
2022-08-25T19:44:59.874Z,53.04
2022-08-25T19:47:30.039Z,52.42
2022-08-25T19:50:00.727Z,51.65
2022-08-25T19:52:29.152Z,51.53
2022-08-25T19:54:58.450Z,52.10
2022-08-25T19:57:28.414Z,53.10
2022-08-25T20:00:29.512Z,54.86
2022-08-25T20:03:00.840Z,56.06
2022-08-25T20:05:30.372Z,56.76
2022-08-25T20:07:59.824Z,57.18
2022-08-25T20:10:35.608Z,57.40
2022-08-25T20:13:10.041Z,56.96
2022-08-25T20:15:39.185Z,56.71
2022-08-25T20:18:10.686Z,57.64
2022-08-25T20:20:39.265Z,58.48
2022-08-25T20:23:26.694Z,58.36
2022-08-25T20:25:55.995Z,58.72
2022-08-25T20:28:24.535Z,59.47
2022-08-25T20:30:52.722Z,58.95
2022-08-25T20:33:23.637Z,58.97
2022-08-25T20:35:53.102Z,59.65
2022-08-25T20:38:21.729Z,60.26
2022-08-25T20:40:49.761Z,60.70
2022-08-25T20:43:18.117Z,61.00
2022-08-25T20:45:49.459Z,61.23
2022-08-25T20:48:18.156Z,61.51
2022-08-25T20:50:46.057Z,62.00
2022-08-25T20:53:26.492Z,61.75
2022-08-25T20:55:54.570Z,62.03
2022-08-25T20:58:22.635Z,62.43
2022-08-25T21:00:52.022Z,62.28
2022-08-25T21:03:20.921Z,62.42
2022-08-25T21:05:49.288Z,61.97
2022-08-25T21:08:23.677Z,62.02
2022-08-25T21:10:51.882Z,61.96
2022-08-25T21:13:20.158Z,62.47
2022-08-25T21:15:51.121Z,63.09
2022-08-25T21:18:19.601Z,62.96
2022-08-25T21:20:47.645Z,63.20
2022-08-25T21:23:16.066Z,62.97
2022-08-25T21:25:44.109Z,62.99
2022-08-25T21:28:13.116Z,63.03
2022-08-25T21:30:44.683Z,63.41
2022-08-25T21:33:15.988Z,63.69
2022-08-25T21:35:44.176Z,64.24
2022-08-25T21:38:16.164Z,64.61
2022-08-25T21:40:45.195Z,64.69
2022-08-25T21:43:13.507Z,65.10
2022-08-25T21:45:46.687Z,65.55
2022-08-25T21:48:15.849Z,65.89
2022-08-25T21:50:44.056Z,66.10
2022-08-25T21:53:12.147Z,66.58
2022-08-25T21:55:44.296Z,66.97
2022-08-25T21:58:12.373Z,67.17
2022-08-25T22:00:41.979Z,66.91
2022-08-25T22:03:09.944Z,67.06
2022-08-25T22:05:38.020Z,66.78
2022-08-25T22:08:06.291Z,66.71
2022-08-25T22:10:34.371Z,67.03
2022-08-25T22:13:03.033Z,67.44
2022-08-25T22:15:31.419Z,67.96
2022-08-25T22:17:59.497Z,68.34
2022-08-25T22:20:29.710Z,68.91
2022-08-25T22:22:57.685Z,68.06
2022-08-25T22:25:28.205Z,67.72
2022-08-25T22:27:57.297Z,68.30
2022-08-25T22:30:28.349Z,68.27
2022-08-25T22:32:59.402Z,67.93
2022-08-25T22:35:31.038Z,67.80
2022-08-25T22:38:01.770Z,68.18
2022-08-25T22:40:34.261Z,68.47
2022-08-25T22:43:03.895Z,68.51
2022-08-25T22:45:35.669Z,68.71
2022-08-25T22:48:05.526Z,68.69
2022-08-25T22:50:37.485Z,69.28
2022-08-25T22:53:05.700Z,70.15
2022-08-25T22:55:34.445Z,71.22
2022-08-25T22:58:02.417Z,71.51
2022-08-25T23:00:32.125Z,71.54
2022-08-25T23:03:00.201Z,71.72
2022-08-25T23:05:29.798Z,72.09
2022-08-25T23:07:57.979Z,72.12
2022-08-25T23:10:26.766Z,72.09
2022-08-25T23:12:54.731Z,72.07
2022-08-25T23:15:22.800Z,72.25
2022-08-25T23:17:51.690Z,72.36
2022-08-25T23:20:44.812Z,72.88
2022-08-25T23:23:14.254Z,73.23
2022-08-25T23:25:42.251Z,73.42
2022-08-25T23:28:10.400Z,73.71
2022-08-25T23:30:39.912Z,74.20
2022-08-25T23:33:18.716Z,75.06
2022-08-25T23:35:57.186Z,75.36
2022-08-25T23:38:25.822Z,75.50
2022-08-25T23:40:57.123Z,75.93
2022-08-25T23:43:26.595Z,76.15
2022-08-25T23:45:55.816Z,76.48
2022-08-25T23:48:25.478Z,76.73
2022-08-25T23:50:53.970Z,77.30
2022-08-25T23:53:22.861Z,77.49
2022-08-25T23:55:54.135Z,77.85
2022-08-25T23:58:24.184Z,78.01
